Time;durP1;ratioP1;P1;durP2;ratioP2;P2;SDS_P1;SDS_P2;PMS_P1;PMS_P2;Temp;Humidity;BMP_temperature;BMP_pressure;BME280_temperature;BME280_humidity;BME280_pressure;Samples;Min_cycle;Max_cycle;Signal;HPM_P1;HPM_P2
2022/10/10 00:00:40;;;;;;;21.73;15.15;;;;;;;12.63;63.59;100131.97;5052632;28;20032;-69
2022/10/10 00:03:07;;;;;;;18.67;13.52;;;;;;;12.52;63.98;100134.31;5052929;28;20487;-70
2022/10/10 00:05:33;;;;;;;23.67;14.90;;;;;;;12.11;65.53;100133.66;5034286;28;20072;-70
2022/10/10 00:07:58;;;;;;;27.90;16.13;;;;;;;12.24;64.92;100142.25;5032720;28;20025;-70
2022/10/10 00:10:25;;;;;;;22.73;14.10;;;;;;;12.51;63.78;100138.28;5032927;28;20122;-70
2022/10/10 00:12:50;;;;;;;20.85;14.65;;;;;;;12.63;63.35;100149.66;5032852;28;20025;-70
2022/10/10 00:15:17;;;;;;;21.85;15.20;;;;;;;12.10;65.28;100148.84;5045567;28;20029;-70
2022/10/10 00:17:42;;;;;;;21.05;14.85;;;;;;;11.67;67.66;100150.41;5052651;28;20021;-70
2022/10/10 00:20:13;;;;;;;22.63;14.77;;;;;;;11.43;68.74;100153.59;5052486;28;20028;-70
2022/10/10 00:22:39;;;;;;;25.52;14.68;;;;;;;11.66;68.36;100155.16;5052532;28;20547;-70
2022/10/10 00:25:06;;;;;;;28.30;14.82;;;;;;;11.90;66.89;100145.47;5051176;28;20157;-70
2022/10/10 00:27:32;;;;;;;17.48;12.18;;;;;;;11.97;65.97;100144.19;5052330;28;20020;-69
2022/10/10 00:29:58;;;;;;;16.88;12.20;;;;;;;11.88;65.98;100156.19;5048453;28;20029;-70
2022/10/10 00:32:23;;;;;;;23.55;13.60;;;;;;;11.60;66.88;100144.44;5052408;28;20025;-70
2022/10/10 00:34:49;;;;;;;21.88;14.40;;;;;;;11.30;68.35;100147.78;5052201;28;20033;-70
2022/10/10 00:37:15;;;;;;;19.67;13.85;;;;;;;10.93;70.38;100152.72;5052366;28;20033;-70
2022/10/10 00:39:41;;;;;;;20.92;12.65;;;;;;;10.81;70.99;100159.75;5032367;28;20025;-70
2022/10/10 00:42:06;;;;;;;20.75;13.00;;;;;;;10.92;71.00;100159.47;5032355;28;20381;-70
2022/10/10 00:44:32;;;;;;;27.25;16.02;;;;;;;10.99;70.62;100150.63;5030814;28;20021;-70
2022/10/10 00:46:57;;;;;;;51.42;22.80;;;;;;;11.00;71.00;100150.31;5048750;28;20090;-70
2022/10/10 00:49:27;;;;;;;56.35;24.13;;;;;;;11.26;70.38;100141.19;5048333;28;20025;-70
2022/10/10 00:51:54;;;;;;;;;;;;;;;11.43;69.64;100139.59;5050768;28;20025;-69
2022/10/10 00:54:22;;;;;;;49.47;20.92;;;;;;;11.88;68.16;100130.97;5051889;28;20341;-70
2022/10/10 00:56:55;;;;;;;47.97;19.63;;;;;;;12.11;66.98;100147.69;5052005;28;20020;-69
2022/10/10 00:59:23;;;;;;;34.55;17.70;;;;;;;12.27;66.06;100138.78;5051801;28;20476;-70
2022/10/10 01:01:49;;;;;;;36.65;19.83;;;;;;;12.28;65.73;100144.06;5051945;28;20055;-70
2022/10/10 01:04:38;;;;;;;46.30;20.02;;;;;;;11.88;68.05;100133.78;5050756;28;20036;-70
2022/10/10 01:07:07;;;;;;;36.88;19.25;;;;;;;12.02;67.55;100138.44;5051643;28;20120;-70
2022/10/10 01:09:36;;;;;;;29.83;17.27;;;;;;;11.95;67.75;100136.09;5051671;28;20028;-69
2022/10/10 01:12:16;;;;;;;35.03;18.63;;;;;;;11.94;67.37;100146.50;5051243;28;20100;-70
2022/10/10 01:15:31;;;;;;;42.70;21.70;;;;;;;12.17;66.77;100151.97;5049891;28;20107;-70
2022/10/10 01:18:02;;;;;;;38.85;20.48;;;;;;;12.04;67.08;100147.34;5050220;28;20430;-69
2022/10/10 01:20:45;;;;;;;46.30;22.38;;;;;;;11.89;67.35;100149.44;5050455;28;20025;-70
2022/10/10 01:23:32;;;;;;;54.80;25.60;;;;;;;11.91;67.41;100154.72;5051544;28;20021;-70
2022/10/10 01:26:22;;;;;;;46.60;23.83;;;;;;;11.73;67.90;100154.69;5051341;28;20021;-70
2022/10/10 01:28:52;;;;;;;41.10;19.27;;;;;;;11.51;69.08;100152.81;5050288;28;20031;-70
2022/10/10 01:31:22;;;;;;;35.43;19.13;;;;;;;11.49;69.48;100152.31;5051291;28;20025;-70
2022/10/10 01:34:05;;;;;;;43.17;19.38;;;;;;;11.63;68.65;100150.22;5051290;28;20023;-70
2022/10/10 01:36:49;;;;;;;31.00;17.70;;;;;;;11.20;70.67;100168.50;5051421;28;20384;-70
2022/10/10 01:39:22;;;;;;;98.32;37.72;;;;;;;11.15;70.96;100171.44;5050212;28;20033;-69
2022/10/10 01:42:01;;;;;;;83.38;37.13;;;;;;;11.33;70.23;100174.34;5051191;28;20017;-69
2022/10/10 01:44:26;;;;;;;38.72;19.73;;;;;;;11.38;69.80;100169.41;5051010;28;20020;-70
2022/10/10 01:46:51;;;;;;;22.25;14.73;;;;;;;11.47;69.31;100168.63;5051051;28;20028;-70
2022/10/10 01:49:17;;;;;;;28.65;14.20;;;;;;;11.32;70.25;100167.91;5051229;28;20487;-70
2022/10/10 01:52:05;;;;;;;33.50;15.02;;;;;;;11.47;69.89;100163.84;5049366;28;20028;-69
2022/10/10 01:54:48;;;;;;;25.60;14.70;;;;;;;11.57;69.40;100176.72;5051018;28;20060;-70
2022/10/10 01:57:20;;;;;;;23.13;14.70;;;;;;;11.27;70.33;100187.66;5050967;28;20021;-69
2022/10/10 01:59:49;;;;;;;40.30;17.88;;;;;;;11.46;69.89;100186.56;5051045;28;20107;-70
2022/10/10 02:02:30;;;;;;;64.80;26.83;;;;;;;11.49;69.53;100188.75;5049564;28;20123;-70
2022/10/10 02:05:05;;;;;;;52.65;23.88;;;;;;;11.42;69.41;100183.59;5050930;28;20048;-70
2022/10/10 02:07:40;;;;;;;41.60;19.90;;;;;;;11.37;69.89;100190.19;5050744;28;20487;-70
2022/10/10 02:10:07;;;;;;;36.17;17.83;;;;;;;11.52;69.69;100180.53;5050923;28;20021;-70
2022/10/10 02:12:35;;;;;;;28.85;16.45;;;;;;;11.72;68.60;100186.66;5051147;28;20024;-69
2022/10/10 02:15:11;;;;;;;42.50;17.30;;;;;;;11.89;67.87;100180.28;5050941;28;20131;-70
2022/10/10 02:17:38;;;;;;;24.20;16.98;;;;;;;11.90;67.80;100179.13;5048614;28;20021;-70
2022/10/10 02:20:06;;;;;;;29.60;15.10;;;;;;;12.15;66.78;100185.13;5049592;28;20025;-70
2022/10/10 02:22:33;;;;;;;27.17;15.00;;;;;;;12.27;65.95;100184.50;5051140;28;20399;-70
2022/10/10 02:24:59;;;;;;;31.83;14.90;;;;;;;12.30;65.56;100182.97;5053524;28;20389;-69
2022/10/10 02:27:43;;;;;;;31.83;15.75;;;;;;;12.36;64.92;100188.09;5053003;28;20027;-70
2022/10/10 02:30:10;;;;;;;26.77;14.80;;;;;;;12.15;65.66;100185.13;5054542;28;20032;-70
2022/10/10 02:32:42;;;;;;;23.17;14.57;;;;;;;12.17;65.74;100196.84;5053271;28;20025;-70
2022/10/10 02:35:13;;;;;;;18.45;14.23;;;;;;;11.76;67.43;100198.06;5054548;28;20031;-71
2022/10/10 02:37:41;;;;;;;23.85;14.45;;;;;;;11.68;68.67;100201.63;5054500;28;20100;-70
2022/10/10 02:40:09;;;;;;;21.08;13.55;;;;;;;11.48;69.65;100204.72;5054468;28;20276;-71
2022/10/10 02:42:36;;;;;;;22.45;14.50;;;;;;;11.06;71.99;100205.00;5051092;28;20021;-70
2022/10/10 02:45:03;;;;;;;28.92;16.17;;;;;;;11.31;70.90;100199.84;5054256;28;20426;-70
2022/10/10 02:47:28;;;;;;;26.75;14.48;;;;;;;11.48;70.74;100212.31;5054301;28;20036;-70
2022/10/10 02:49:54;;;;;;;23.27;14.55;;;;;;;11.78;69.43;100215.34;5054318;28;20017;-70
2022/10/10 02:52:19;;;;;;;24.83;14.95;;;;;;;11.84;68.24;100211.28;5052922;28;20496;-69
2022/10/10 02:54:45;;;;;;;24.20;14.70;;;;;;;11.85;67.51;100200.88;5054338;28;20029;-69
2022/10/10 02:57:11;;;;;;;31.05;16.20;;;;;;;11.97;66.05;100212.28;5054034;28;20044;-70
2022/10/10 02:59:36;;;;;;;28.73;14.95;;;;;;;12.01;65.69;100218.06;5054168;28;20028;-70
2022/10/10 03:02:02;;;;;;;27.50;15.10;;;;;;;12.01;65.57;100218.06;5054131;28;20025;-70
2022/10/10 03:04:27;;;;;;;37.85;15.57;;;;;;;12.04;65.16;100212.66;5054096;28;20399;-70
2022/10/10 03:06:53;;;;;;;33.60;16.95;;;;;;;11.72;67.39;100213.88;5052812;28;20021;-70
2022/10/10 03:09:19;;;;;;;43.63;21.88;;;;;;;11.56;68.20;100225.50;5053958;28;20497;-69
2022/10/10 03:11:44;;;;;;;58.85;31.20;;;;;;;11.62;68.17;100218.63;5052587;28;20031;-69
2022/10/10 03:14:10;;;;;;;60.55;31.58;;;;;;;11.84;67.15;100216.03;5054172;28;20492;-70
2022/10/10 03:16:35;;;;;;;38.05;20.35;;;;;;;11.87;66.53;100229.41;5051289;28;20246;-70
2022/10/10 03:19:02;;;;;;;35.75;16.73;;;;;;;11.80;66.27;100235.47;5034400;28;20022;-70
2022/10/10 03:21:27;;;;;;;32.95;16.75;;;;;;;11.83;65.92;100234.00;5033681;28;20112;-70
2022/10/10 03:23:53;;;;;;;28.40;15.30;;;;;;;11.77;66.51;100227.72;5033780;28;20443;-70
2022/10/10 03:26:19;;;;;;;26.75;13.63;;;;;;;11.73;66.64;100229.53;5033157;28;20026;-69
2022/10/10 03:28:44;;;;;;;18.67;13.77;;;;;;;11.42;67.63;100228.41;5033785;28;20026;-70
2022/10/10 03:31:09;;;;;;;24.88;15.65;;;;;;;11.18;68.96;100229.63;5033604;28;20018;-70
2022/10/10 03:33:35;;;;;;;20.27;13.38;;;;;;;11.40;68.35;100229.88;5033579;28;20025;-70
2022/10/10 03:36:01;;;;;;;21.30;13.77;;;;;;;11.48;67.85;100231.91;5033079;28;20104;-70
2022/10/10 03:38:26;;;;;;;25.90;14.88;;;;;;;11.42;68.73;100235.97;5050638;28;20020;-70
2022/10/10 03:40:52;;;;;;;21.95;15.25;;;;;;;11.48;67.94;100237.50;5053457;28;20109;-70
2022/10/10 03:43:17;;;;;;;23.08;14.75;;;;;;;11.44;68.03;100228.91;5053264;28;20029;-70
2022/10/10 03:45:44;;;;;;;34.45;25.05;;;;;;;10.93;70.64;100239.50;5051895;28;20052;-70
2022/10/10 03:48:10;;;;;;;33.65;21.27;;;;;;;11.28;69.09;100236.91;5049871;28;20419;-70
2022/10/10 03:50:36;;;;;;;30.25;17.95;;;;;;;11.17;68.72;100238.31;5053237;28;20060;-70
2022/10/10 03:53:02;;;;;;;31.20;15.10;;;;;;;11.32;67.63;100240.72;5053193;28;20105;-70
2022/10/10 03:55:27;;;;;;;29.98;16.67;;;;;;;11.18;67.58;100245.56;5053066;28;20103;-70
2022/10/10 03:57:53;;;;;;;30.85;16.73;;;;;;;10.75;68.89;100244.13;5039553;28;20489;-69
2022/10/10 04:00:18;;;;;;;30.75;17.13;;;;;;;10.74;67.84;100246.13;5036630;28;20052;-70
2022/10/10 04:02:44;;;;;;;28.20;16.80;;;;;;;10.82;67.36;100242.53;5052877;28;20112;-70
2022/10/10 04:05:09;;;;;;;25.38;15.07;;;;;;;10.86;66.58;100237.16;5053012;28;20021;-70
2022/10/10 04:07:35;;;;;;;30.38;16.75;;;;;;;10.63;67.25;100242.72;5052585;28;20468;-70
2022/10/10 04:10:00;;;;;;;30.20;16.98;;;;;;;10.82;66.60;100242.53;5052922;28;20044;-70
2022/10/10 04:12:26;;;;;;;26.08;16.42;;;;;;;10.84;66.27;100235.78;5046373;28;20535;-69
2022/10/10 04:14:51;;;;;;;29.45;17.50;;;;;;;10.56;67.14;100238.72;5052729;28;20029;-70
2022/10/10 04:17:17;;;;;;;24.25;17.00;;;;;;;10.70;67.12;100245.09;5032833;28;20037;-70
2022/10/10 04:19:42;;;;;;;32.40;18.48;;;;;;;10.74;66.62;100236.88;5046628;28;20407;-69
2022/10/10 04:22:08;;;;;;;40.92;17.58;;;;;;;10.92;66.05;100251.84;5052625;28;20017;-70
2022/10/10 04:24:33;;;;;;;29.73;16.35;;;;;;;10.70;66.04;100253.47;5043900;28;20025;-70
2022/10/10 04:26:59;;;;;;;26.63;19.52;;;;;;;9.97;69.06;100249.47;5032136;28;20021;-70
2022/10/10 04:29:24;;;;;;;33.53;18.35;;;;;;;10.32;68.61;100249.03;5032539;28;20037;-70
2022/10/10 04:31:50;;;;;;;39.25;22.75;;;;;;;10.60;68.01;100253.72;5032250;28;20031;-70
2022/10/10 04:34:15;;;;;;;51.10;26.05;;;;;;;10.60;67.55;100254.56;5041469;28;20083;-71
2022/10/10 04:36:41;;;;;;;42.20;24.40;;;;;;;10.59;67.70;100241.72;5038538;28;20021;-69
2022/10/10 04:39:06;;;;;;;48.67;23.80;;;;;;;10.23;69.97;100250.91;5033410;28;20044;-71
2022/10/10 04:41:32;;;;;;;40.28;23.20;;;;;;;10.39;70.10;100249.41;5045594;28;20025;-72
2022/10/10 04:43:57;;;;;;;49.88;21.67;;;;;;;10.62;69.21;100257.88;5052606;28;20494;-74
2022/10/10 04:46:23;;;;;;;43.47;21.77;;;;;;;10.78;69.46;100268.69;5051699;28;20483;-74
2022/10/10 04:48:48;;;;;;;38.20;17.25;;;;;;;10.86;69.70;100267.94;5044558;28;20021;-73
2022/10/10 04:51:14;;;;;;;24.80;14.35;;;;;;;10.90;69.46;100259.72;5032927;28;20392;-73
2022/10/10 04:53:39;;;;;;;32.22;15.35;;;;;;;10.98;70.04;100266.53;5038482;28;20756;-71
2022/10/10 04:56:05;;;;;;;28.25;18.10;;;;;;;11.02;70.31;100270.34;5050254;28;20071;-73
2022/10/10 04:58:30;;;;;;;32.13;19.25;;;;;;;11.04;69.42;100263.28;5039751;28;20029;-73
2022/10/10 05:00:56;;;;;;;79.40;66.32;;;;;;;11.09;69.52;100274.34;5041006;28;20033;-72
2022/10/10 05:03:23;;;;;;;40.58;23.27;;;;;;;10.85;70.39;100271.88;5040337;28;20025;-71
2022/10/10 05:05:49;;;;;;;29.08;18.55;;;;;;;10.60;70.53;100267.69;5031107;28;20029;-71
2022/10/10 05:08:15;;;;;;;29.13;16.83;;;;;;;10.32;72.53;100276.16;5032993;28;20508;-71
2022/10/10 05:10:40;;;;;;;26.38;14.15;;;;;;;10.25;72.68;100282.16;5051609;28;20028;-71
2022/10/10 05:13:10;;;;;;;26.95;14.27;;;;;;;10.62;72.17;100288.63;5040366;28;20167;-71
2022/10/10 05:15:36;;;;;;;24.15;14.15;;;;;;;10.90;70.76;100280.13;5031714;28;20420;-71
2022/10/10 05:18:03;;;;;;;21.20;13.80;;;;;;;11.01;70.69;100289.13;5031689;28;20033;-72
2022/10/10 05:20:30;;;;;;;27.90;12.95;;;;;;;11.27;69.69;100284.81;5031512;28;20025;-71
2022/10/10 05:22:55;;;;;;;29.92;15.55;;;;;;;11.55;68.50;100291.09;5031218;28;20037;-70
2022/10/10 05:25:21;;;;;;;26.55;14.38;;;;;;;11.81;68.26;100304.41;5043137;28;20025;-71
2022/10/10 05:27:46;;;;;;;36.60;16.70;;;;;;;11.48;68.86;100304.75;5051069;28;20025;-71
2022/10/10 05:30:12;;;;;;;32.72;16.08;;;;;;;11.24;70.31;100305.91;5051002;28;20052;-71
2022/10/10 05:32:37;;;;;;;29.58;16.15;;;;;;;11.34;69.92;100294.47;5051002;28;20023;-71
2022/10/10 05:35:03;;;;;;;32.35;16.27;;;;;;;11.57;69.33;100308.41;5049861;28;20032;-71
2022/10/10 05:37:30;;;;;;;25.73;15.75;;;;;;;11.21;70.48;100312.97;5036545;28;20116;-71
2022/10/10 05:39:56;;;;;;;26.20;15.43;;;;;;;10.72;73.11;100307.16;5031318;28;20151;-72
2022/10/10 05:42:21;;;;;;;28.98;16.75;;;;;;;10.91;72.59;100309.78;5031457;28;20453;-71
2022/10/10 05:44:47;;;;;;;24.83;17.10;;;;;;;10.90;73.32;100308.13;5034244;28;20127;-71
2022/10/10 05:47:13;;;;;;;29.38;17.60;;;;;;;11.38;72.00;100312.25;5048917;28;20029;-71
2022/10/10 05:49:39;;;;;;;29.83;16.10;;;;;;;11.36;71.96;100314.56;5051074;28;20029;-71
2022/10/10 05:52:04;;;;;;;31.80;17.67;;;;;;;11.70;71.05;100317.88;5051156;28;20032;-72
2022/10/10 05:54:30;;;;;;;28.13;15.40;;;;;;;11.92;70.29;100322.59;5047302;28;20102;-71
2022/10/10 05:56:55;;;;;;;18.77;12.70;;;;;;;11.71;71.77;100321.53;5031764;28;20022;-71
2022/10/10 05:59:21;;;;;;;21.58;14.02;;;;;;;11.53;72.92;100321.41;5030869;28;20048;-71
2022/10/10 06:01:46;;;;;;;41.20;15.70;;;;;;;11.50;73.34;100316.47;5036131;28;20064;-71
2022/10/10 06:04:12;;;;;;;25.40;14.18;;;;;;;11.79;72.91;100315.94;5040629;28;20476;-71
2022/10/10 06:06:37;;;;;;;47.00;14.00;;;;;;;12.07;71.84;100321.34;5030817;28;20026;-71
2022/10/10 06:09:03;;;;;;;36.00;13.77;;;;;;;11.87;72.12;100319.09;5030869;28;20113;-71
2022/10/10 06:11:28;;;;;;;21.55;13.32;;;;;;;11.66;72.96;100328.91;5033626;28;20021;-71
2022/10/10 06:13:54;;;;;;;18.17;12.05;;;;;;;11.79;73.15;100320.72;5033598;28;20041;-71
2022/10/10 06:16:21;;;;;;;23.35;13.05;;;;;;;12.04;71.76;100326.78;5031014;28;20036;-71
2022/10/10 06:18:46;;;;;;;25.48;12.70;;;;;;;12.34;71.25;100329.88;5031810;28;20104;-71
2022/10/10 06:21:12;;;;;;;31.65;12.90;;;;;;;12.57;70.41;100321.31;5035011;28;20025;-71
2022/10/10 06:23:39;;;;;;;29.00;12.07;;;;;;;12.74;69.41;100328.94;5030903;28;20076;-71
2022/10/10 06:26:04;;;;;;;20.90;11.65;;;;;;;12.78;69.06;100324.31;5030831;28;20071;-71
2022/10/10 06:28:30;;;;;;;26.25;11.65;;;;;;;12.73;69.03;100321.66;5031076;28;20017;-71
2022/10/10 06:31:00;;;;;;;19.65;12.00;;;;;;;12.70;69.29;100330.75;5030136;28;20060;-71
2022/10/10 06:33:25;;;;;;;33.72;14.15;;;;;;;12.75;69.65;100330.59;5031909;28;20053;-70
2022/10/10 06:35:51;;;;;;;21.02;11.95;;;;;;;13.17;68.10;100324.50;5030829;28;20064;-73
2022/10/10 06:38:17;;;;;;;21.35;11.70;;;;;;;13.30;67.37;100331.06;5030806;28;20025;-76
2022/10/10 06:40:43;;;;;;;18.15;11.45;;;;;;;13.43;67.01;100335.66;5030762;28;20075;-72
2022/10/10 06:43:12;;;;;;;30.75;13.52;;;;;;;13.67;66.73;100344.75;5030738;28;20028;-72
2022/10/10 06:45:39;;;;;;;32.78;12.60;;;;;;;13.89;65.49;100340.88;5032850;28;20053;-72
2022/10/10 06:48:05;;;;;;;17.33;12.43;;;;;;;14.06;65.42;100345.59;5031947;28;20127;-71
2022/10/10 06:50:31;;;;;;;22.48;13.02;;;;;;;13.95;65.50;100341.50;5031327;28;20021;-72
2022/10/10 06:52:56;;;;;;;21.38;12.98;;;;;;;14.16;64.66;100339.59;5031845;28;20025;-72
2022/10/10 06:55:22;;;;;;;19.73;12.57;;;;;;;14.48;63.94;100347.72;5030266;28;20044;-72
2022/10/10 06:57:47;;;;;;;25.88;13.40;;;;;;;14.46;63.83;100347.25;5030622;28;20024;-72
2022/10/10 07:00:14;;;;;;;22.55;12.40;;;;;;;14.70;62.95;100346.56;5030584;28;20527;-73
2022/10/10 07:02:40;;;;;;;17.92;12.05;;;;;;;15.05;62.21;100342.72;5031117;28;20035;-73
2022/10/10 07:05:07;;;;;;;14.13;11.05;;;;;;;14.90;61.96;100348.94;5030416;28;20041;-73
2022/10/10 07:07:34;;;;;;;18.27;11.55;;;;;;;15.35;61.17;100356.69;5037155;28;20025;-73
2022/10/10 07:09:59;;;;;;;15.35;10.88;;;;;;;15.19;61.42;100356.50;5038110;28;20060;-70
2022/10/10 07:12:25;;;;;;;13.90;11.00;;;;;;;15.28;60.47;100354.44;5041432;28;20060;-75
2022/10/10 07:14:50;;;;;;;20.08;11.20;;;;;;;15.41;60.13;100357.31;5049162;28;20495;-75
2022/10/10 07:17:15;;;;;;;20.55;10.57;;;;;;;15.70;59.92;100355.53;5033841;28;20085;-75
2022/10/10 07:19:41;;;;;;;26.90;10.93;;;;;;;15.76;58.80;100362.59;5036802;28;20040;-74
2022/10/10 07:22:06;;;;;;;14.52;11.70;;;;;;;15.85;58.14;100362.47;5037428;28;20025;-73
2022/10/10 07:24:32;;;;;;;16.25;10.40;;;;;;;15.91;58.27;100358.31;5041744;28;20017;-73
2022/10/10 07:26:57;;;;;;;16.98;10.82;;;;;;;16.16;57.56;100354.69;5052249;28;20025;-73
2022/10/10 07:29:23;;;;;;;15.88;10.50;;;;;;;16.22;58.08;100353.28;5043200;28;20033;-73
2022/10/10 07:31:49;;;;;;;24.02;10.40;;;;;;;16.23;57.48;100357.75;5034022;28;20032;-74
2022/10/10 07:34:14;;;;;;;14.73;11.00;;;;;;;16.76;55.95;100362.66;5033461;28;20075;-73
2022/10/10 07:36:40;;;;;;;15.65;11.10;;;;;;;17.01;55.94;100359.81;5045549;28;20017;-73
2022/10/10 07:39:06;;;;;;;20.30;10.63;;;;;;;17.28;54.49;100357.38;5043596;28;20028;-73
2022/10/10 07:41:31;;;;;;;21.20;9.45;;;;;;;16.96;54.69;100356.03;5032154;28;20407;-74
2022/10/10 07:43:57;;;;;;;21.65;10.43;;;;;;;17.21;54.17;100355.97;5033067;28;20025;-73
2022/10/10 07:46:22;;;;;;;21.52;10.07;;;;;;;17.38;53.81;100354.84;5032731;28;20515;-75
2022/10/10 07:48:48;;;;;;;26.60;10.50;;;;;;;17.80;52.70;100364.09;5033787;28;20040;-73
2022/10/10 07:51:14;;;;;;;65.63;13.70;;;;;;;18.07;52.23;100358.75;5031236;28;20026;-72
2022/10/10 07:53:40;;;;;;;24.20;10.52;;;;;;;17.91;52.89;100353.84;5034682;28;20101;-73
2022/10/10 07:56:07;;;;;;;21.30;10.23;;;;;;;18.02;52.31;100351.31;5034768;28;20032;-72
2022/10/10 07:58:34;;;;;;;26.63;10.48;;;;;;;17.79;51.91;100351.09;5039103;28;20083;-72
2022/10/10 08:01:18;;;;;;;16.98;9.65;;;;;;;18.18;51.53;100353.34;5050763;28;20083;-73
2022/10/10 08:03:43;;;;;;;16.38;10.05;;;;;;;18.36;51.30;100346.13;5052893;28;20029;-73
2022/10/10 08:06:12;;;;;;;14.55;9.45;;;;;;;18.56;51.30;100356.69;5047237;28;20025;-73
2022/10/10 08:08:38;;;;;;;19.02;9.02;;;;;;;18.54;50.76;100357.06;5031127;28;20507;-74
2022/10/10 08:11:06;;;;;;;15.63;9.45;;;;;;;18.63;50.67;100348.34;5044645;28;20032;-73
2022/10/10 08:13:32;;;;;;;22.17;9.38;;;;;;;18.61;49.75;100351.56;5052804;28;20024;-74
2022/10/10 08:15:57;;;;;;;14.35;9.65;;;;;;;18.78;49.36;100358.84;5038045;28;20030;-73
2022/10/10 08:18:23;;;;;;;15.68;9.95;;;;;;;18.85;49.09;100355.34;5037450;28;20082;-73
2022/10/10 08:21:00;;;;;;;21.60;9.43;;;;;;;18.67;49.66;100349.28;5037460;28;20086;-73
2022/10/10 08:23:26;;;;;;;18.40;9.00;;;;;;;18.76;49.73;100347.06;5038109;28;20078;-73
2022/10/10 08:25:52;;;;;;;27.98;10.43;;;;;;;18.85;49.38;100349.69;5035643;28;20053;-73
2022/10/10 08:28:18;;;;;;;25.42;11.20;;;;;;;18.86;49.53;100348.50;5040902;28;20033;-73
2022/10/10 08:30:43;;;;;;;22.83;11.05;;;;;;;18.76;49.19;100351.91;5032575;28;20029;-73
2022/10/10 08:33:09;;;;;;;12.60;10.60;;;;;;;18.89;49.29;100342.06;5035426;28;20471;-73
2022/10/10 08:35:38;;;;;;;19.80;10.43;;;;;;;18.84;49.17;100342.38;5038847;28;20037;-71
2022/10/10 08:38:05;;;;;;;14.63;12.13;;;;;;;18.87;49.42;100343.63;5050529;28;20024;-72
2022/10/10 08:40:31;;;;;;;16.95;10.70;;;;;;;19.00;49.24;100341.53;5052257;28;20495;-71
2022/10/10 08:43:02;;;;;;;22.70;10.77;;;;;;;19.10;48.51;100342.94;5052276;28;20039;-71
2022/10/10 08:45:31;;;;;;;22.73;12.15;;;;;;;19.09;48.34;100330.78;5032728;28;20068;-72
2022/10/10 08:48:09;;;;;;;27.90;12.02;;;;;;;19.25;48.29;100338.41;5050594;28;20415;-71
2022/10/10 08:50:39;;;;;;;22.15;12.05;;;;;;;19.29;47.72;100330.78;5034960;28;20144;-71
2022/10/10 08:53:30;;;;;;;22.88;12.10;;;;;;;19.43;48.28;100335.91;5032151;28;20033;-72
2022/10/10 08:55:56;;;;;;;20.25;11.88;;;;;;;19.60;47.82;100332.59;5036835;28;20071;-71
2022/10/10 08:59:02;;;;;;;20.70;12.13;;;;;;;19.86;46.64;100336.75;5036961;28;20033;-71
2022/10/10 09:01:34;;;;;;;21.83;11.27;;;;;;;20.09;47.63;100335.13;5047294;28;20130;-72
2022/10/10 09:04:02;;;;;;;21.83;11.85;;;;;;;20.16;46.95;100332.41;5046718;28;20056;-71
2022/10/10 09:06:49;;;;;;;30.77;12.88;;;;;;;20.11;45.45;100338.41;5042079;28;20040;-72
2022/10/10 09:09:23;;;;;;;21.35;12.93;;;;;;;20.11;45.93;100335.56;5037675;28;20032;-71
2022/10/10 09:12:18;;;;;;;31.83;14.82;;;;;;;19.87;46.67;100334.72;5031615;28;20061;-72
2022/10/10 09:14:55;;;;;;;22.00;12.77;;;;;;;19.88;46.66;100337.19;5035621;28;20037;-72
2022/10/10 09:17:44;;;;;;;29.33;14.10;;;;;;;19.82;47.14;100346.38;5037851;28;20034;-71
2022/10/10 09:20:34;;;;;;;21.63;12.70;;;;;;;20.07;46.19;100344.00;5033554;28;20029;-70
2022/10/10 09:23:07;;;;;;;27.10;13.93;;;;;;;20.12;46.25;100340.88;5041604;28;20116;-70
2022/10/10 09:25:39;;;;;;;31.17;15.57;;;;;;;20.19;46.05;100337.34;5045722;28;20032;-69
2022/10/10 09:28:15;;;;;;;19.75;12.50;;;;;;;20.15;46.16;100331.59;5032510;28;20039;-69
2022/10/10 09:30:47;;;;;;;22.23;13.90;;;;;;;20.16;46.22;100323.91;5037151;28;20513;-69
2022/10/10 09:33:47;;;;;;;20.27;12.73;;;;;;;20.50;45.46;100326.84;5049751;28;20115;-70
2022/10/10 09:36:18;;;;;;;21.70;12.47;;;;;;;20.66;45.20;100326.69;5039379;28;20579;-70
2022/10/10 09:38:53;;;;;;;17.80;12.05;;;;;;;20.94;44.22;100321.81;5037614;28;20480;-70
2022/10/10 09:41:21;;;;;;;16.20;11.32;;;;;;;21.07;44.32;100319.56;5029001;28;20037;-69
2022/10/10 09:43:47;;;;;;;24.15;10.48;;;;;;;21.12;43.84;100327.75;5043195;28;20741;-69
2022/10/10 09:46:13;;;;;;;20.15;12.05;;;;;;;21.18;44.09;100327.00;5043055;28;20056;-70
2022/10/10 09:48:40;;;;;;;15.85;11.85;;;;;;;21.11;43.48;100332.59;5027783;28;20492;-70
2022/10/10 09:51:12;;;;;;;15.20;12.75;;;;;;;21.17;43.04;100331.06;5029635;28;20030;-70
2022/10/10 09:53:39;;;;;;;15.45;12.20;;;;;;;21.33;43.19;100324.34;5029363;28;20579;-69
2022/10/10 09:56:07;;;;;;;17.35;12.48;;;;;;;21.11;43.20;100323.25;5029560;28;20052;-69
2022/10/10 09:58:41;;;;;;;21.02;12.85;;;;;;;21.23;43.19;100325.03;5030393;28;20037;-69
2022/10/10 10:01:17;;;;;;;15.15;12.15;;;;;;;21.25;43.43;100325.47;5033241;28;20040;-69
2022/10/10 10:03:43;;;;;;;22.98;12.23;;;;;;;21.50;42.96;100322.09;5037796;28;20059;-68
2022/10/10 10:06:14;;;;;;;27.45;13.68;;;;;;;21.74;42.60;100315.88;5031424;28;20037;-69
2022/10/10 10:08:41;;;;;;;23.05;12.98;;;;;;;21.49;42.79;100318.41;5031249;28;20405;-68
2022/10/10 10:11:24;;;;;;;21.52;11.60;;;;;;;21.32;43.02;100311.31;5042299;28;20142;-69
2022/10/10 10:13:54;;;;;;;14.30;10.98;;;;;;;21.36;43.04;100309.34;5047200;28;20040;-68
2022/10/10 10:16:30;;;;;;;22.00;11.98;;;;;;;21.38;43.30;100306.09;5048779;28;20131;-69
2022/10/10 10:18:56;;;;;;;19.42;11.35;;;;;;;21.55;42.75;100296.13;5033725;28;20033;-69
2022/10/10 10:21:23;;;;;;;20.92;10.95;;;;;;;21.45;42.38;100298.47;5032718;28;20121;-68
2022/10/10 10:23:50;;;;;;;21.75;11.93;;;;;;;21.50;42.89;100288.75;5043235;28;20403;-68
2022/10/10 10:26:26;;;;;;;15.98;12.07;;;;;;;21.48;42.56;100290.34;5050732;28;20025;-68
2022/10/10 10:28:53;;;;;;;19.65;9.90;;;;;;;21.50;42.80;100290.81;5048510;28;20025;-68
2022/10/10 10:31:37;;;;;;;22.02;12.02;;;;;;;21.68;42.66;100297.50;5032685;28;20022;-68
2022/10/10 10:34:17;;;;;;;18.17;10.38;;;;;;;21.70;42.63;100283.69;5047959;28;20102;-68
2022/10/10 10:37:14;;;;;;;;;;;;;;;21.54;42.21;100285.94;5044801;28;20602;-68
2022/10/10 10:39:58;;;;;;;17.15;9.60;;;;;;;21.73;42.25;100282.94;5040120;28;19923;-68
2022/10/10 10:42:46;;;;;;;20.92;10.80;;;;;;;21.70;42.07;100274.34;5043640;28;20079;-68
2022/10/10 10:45:36;;;;;;;14.40;9.55;;;;;;;21.73;42.35;100273.56;5049464;28;20045;-68
2022/10/10 10:48:27;;;;;;;11.40;9.53;;;;;;;21.68;42.22;100263.34;5048218;28;20485;-68
2022/10/10 10:50:54;;;;;;;15.85;10.00;;;;;;;21.72;41.86;100263.38;5034869;28;20056;-68
2022/10/10 10:53:42;;;;;;;15.75;8.93;;;;;;;21.98;41.41;100255.88;5042052;28;20066;-69
2022/10/10 10:56:26;;;;;;;17.10;9.13;;;;;;;22.02;41.45;100251.84;5052946;28;20491;-68
2022/10/10 10:59:13;;;;;;;13.25;9.63;;;;;;;21.95;41.42;100248.94;5034940;28;20385;-68
2022/10/10 11:01:53;;;;;;;12.60;8.82;;;;;;;21.81;41.94;100243.13;5037776;28;20032;-68
2022/10/10 11:04:52;;;;;;;19.77;10.25;;;;;;;21.72;41.81;100252.00;5036330;28;20078;-68
2022/10/10 11:07:21;;;;;;;15.53;8.90;;;;;;;21.48;42.05;100248.50;5046538;28;20479;-68
2022/10/10 11:10:43;;;;;;;21.08;9.43;;;;;;;21.67;41.74;100247.47;5050954;28;20063;-68
2022/10/10 11:13:33;;;;;;;17.55;8.85;;;;;;;21.61;42.05;100240.50;5060909;28;20503;-68
2022/10/10 11:16:07;;;;;;;27.13;8.97;;;;;;;21.40;42.53;100241.09;5034571;28;20021;-68
2022/10/10 11:18:40;;;;;;;12.02;8.02;;;;;;;21.46;42.33;100233.84;5053446;28;20040;-68
2022/10/10 11:21:12;;;;;;;19.35;9.90;;;;;;;21.54;42.20;100232.72;5052948;28;20033;-68